KASD

Slidell Airport

Slidell, Louisiana, USA
METAR KASD 190553Z AUTO 00000KT 10SM CLR 10/08 A3005 RMK AO2 SLP174 T01000083 10122 20089 401940033 58014
Observed Flight Rules
Dec-19 @ 05:53 UTC (25 minutes ago) Visual Flight Rules
Visibility Clouds
10 miles
  • Clear skies
Temperatures Readings
Current 10°C / 50°F
Dewpoint 8°C / 46°F
Humidity 88%
Altimeter 30.05" Hg
Pressure 1017.4 hPa
Elevation 9
METAR KASD 190553Z AUTO 00000KT 10SM CLR 10/08 A3005 RMK AO2 SLP174 T01000083 10122 20089 401940033 58014
Observed Flight Rules
Dec-19 @ 05:53 UTC
(25 minutes ago)
VFR
Clouds
  • Clear skies
Temperature Dewpoint
10°C / 50°F 8°C / 46°F
Humidity Altimeter Pressure
88% 30.05" Hg 1017.4 hPa